Casper, WY (82601)

1:32 AM MST on February 12, 2016 (GMT -0700)
Casper Mountain Foothills | | Change Station
CLOSE
Current Station
Personal Weather Station
Location: Casper, WY
Elevation: 5334 ft
Nearby Weather Stations

Elev 5334 ft 42.83 °N, 106.31 °W | Updated 2 minutes ago

Partly Cloudy
Partly Cloudy
37.3 °F
Feels Like 37 °F
N
0.0
Wind Variable Wind from WSW
Gusts 0.0 mph

Today
High -- | Low -- °F
--% Chance of Precip.
Yesterday
High -- | Low -- °F
Precip. -- in
Pressure 30.25 in
Visibility 10.0 miles
Clouds Few 12000 ft
Windchill 37 °F
Dew Point 23 °F
Humidity 55%
Rainfall 0.00 in
Snow Depth Not available.
7:07 AM 5:32 PM
Waxing Crescent, 18% visible
METAR KCPR 120753Z AUTO 25006KT 10SM FEW120 01/M04 A3024 RMK AO2 SLP244 T00111039
Pressure 30.25 in
Visibility 10.0 miles
Clouds Few 12000 ft
Windchill 37 °F
Dew Point 23 °F
Humidity 55%
Rainfall 0.00 in
Snow Depth Not available.
7:07 AM 5:32 PM
Waxing Crescent, 18% visible
METAR KCPR 120753Z AUTO 25006KT 10SM FEW120 01/M04 A3024 RMK AO2 SLP244 T00111039

10-Day Weather Forecast

Almanac

Astronomy

Feb. 12, 2016 Rise Set
Actual Time
Civil Twilight
Nautical Twilight
Astronomical Twilight
Moon
Length of Visible Light
Length of Day
Tomorrow will be .
, % of the Moon is Illuminated

Today's Extremes

State Highs State Lows

Community

WunderPhotos

Upload Photos

1,892,284 photos uploaded!

WunderBlog® & News

Nearby

Air Quality

  Air Quality AQ Index Pollutant
Not available.

Snow Depth

Station Depth Elevation

Earthquake Activity

City Distance Mag. Time & Date
Minimum magnitude displayed is 2.5.

Coastal Water Temperatures

Place Temperature

Stations

Nearby Weather Stations

Station Location Temp. Windchill Dew Point Humidity Wind Precip. Elev Updated Type
                   

Watches & Warnings

There are currently no watches in effect.